Billings, New York
Current Conditions -  °F | °C
As of 10:53 AM on Thursday 18 Dec 2014 (Local Time) from KPOU Reporting Station
Broken Clouds Broken Clouds  
Wind Chill:   Ceiling: 4000
Heat Index:   Visibility: 10mi
Dew Point: -4°   Wind: 10mph
Humidity: 51%   Direction: 270°W
Pressure: 29.93"   Gusts: NA
Location:  41.67°N, 73.76°W
Report Text: KPOU 181553Z 27009KT 10SM BKN040 05/M04 A2993 RMK AO2 SLP134 T00501044
Loading
Personal Weather Stations






























Interactive Weather Map New forecast layout! Learn more

10-Day Weather Forecast

Advertisements
Track Severe Weather on mobile